Time,TemperatureF,DewpointF,PressureIn,WindDirection,WindDirectionDegrees,WindSpeedMPH,WindSpeedGustMPH,Humidity,HourlyPrecipIn,Conditions,Clouds,dailyrainin,SolarRadiationWatts/m^2,SoftwareType,DateUTC
2016-07-25 00:02:00,78.6,77.7,29.98,WSW,238,0.0,0.0,97,0.00,,,0.00,0.00,Weather logger V3.0.,2016-07-25 04:02:00,
2016-07-25 00:07:00,78.4,77.5,29.97,WSW,238,0.0,0.0,97,0.00,,,0.00,0.00,Weather logger V3.0.,2016-07-25 04:07:00,
2016-07-25 00:12:00,78.4,77.5,29.98,WSW,238,0.0,0.0,97,0.00,,,0.00,0.00,Weather logger V3.0.,2016-07-25 04:12:00,
2016-07-25 00:17:00,78.4,77.5,29.99,WSW,238,0.0,0.0,97,0.00,,,0.00,0.00,Weather logger V3.0.,2016-07-25 04:17:00,
2016-07-25 00:22:00,78.3,77.4,29.99,WSW,238,0.0,0.0,97,0.00,,,0.00,0.00,Weather logger V3.0.,2016-07-25 04:22:00,
2016-07-25 00:27:00,78.1,77.2,29.98,WSW,238,0.0,0.0,97,0.00,,,0.00,0.00,Weather logger V3.0.,2016-07-25 04:27:00,
2016-07-25 00:32:00,77.9,77.0,29.99,WSW,238,0.0,0.0,97,0.00,,,0.00,0.00,Weather logger V3.0.,2016-07-25 04:32:00,
2016-07-25 00:37:00,77.7,76.8,29.98,WSW,238,0.0,0.0,97,0.00,,,0.00,0.00,Weather logger V3.0.,2016-07-25 04:37:00,
2016-07-25 00:42:00,77.5,76.6,29.99,WSW,238,0.0,0.0,97,0.00,,,0.00,0.00,Weather logger V3.0.,2016-07-25 04:42:00,
2016-07-25 00:47:00,77.4,76.5,29.98,WSW,238,0.0,0.0,97,0.00,,,0.00,0.00,Weather logger V3.0.,2016-07-25 04:47:00,
2016-07-25 00:53:00,77.2,76.3,29.99,WSW,238,0.0,0.0,97,0.00,,,0.00,0.00,Weather logger V3.0.,2016-07-25 04:53:00,
2016-07-25 00:58:00,77.2,76.6,30.00,WSW,238,0.0,0.0,98,0.00,,,0.00,0.00,Weather logger V3.0.,2016-07-25 04:58:00,
2016-07-25 01:03:00,77.2,76.6,30.00,WSW,238,0.0,0.0,98,0.00,,,0.00,0.00,Weather logger V3.0.,2016-07-25 05:03:00,
2016-07-25 01:08:00,77.2,76.6,30.00,WSW,238,0.0,0.0,98,0.00,,,0.00,0.00,Weather logger V3.0.,2016-07-25 05:08:00,
2016-07-25 01:13:00,77.2,76.6,29.99,WSW,238,0.0,0.0,98,0.00,,,0.00,0.00,Weather logger V3.0.,2016-07-25 05:13:00,
2016-07-25 01:18:00,77.2,76.6,30.00,WSW,238,0.0,0.0,98,0.00,,,0.00,0.00,Weather logger V3.0.,2016-07-25 05:18:00,
2016-07-25 01:23:00,77.2,76.6,30.00,WSW,238,0.0,0.0,98,0.00,,,0.00,0.00,Weather logger V3.0.,2016-07-25 05:23:00,
2016-07-25 01:28:00,77.2,76.6,30.00,WSW,238,0.0,0.0,98,0.00,,,0.00,0.00,Weather logger V3.0.,2016-07-25 05:28:00,
2016-07-25 01:33:00,77.2,76.6,30.00,WSW,238,0.0,0.0,98,0.00,,,0.00,0.00,Weather logger V3.0.,2016-07-25 05:33:00,
2016-07-25 01:38:00,77.2,76.6,30.01,WSW,238,0.0,0.0,98,0.00,,,0.00,0.00,Weather logger V3.0.,2016-07-25 05:38:00,
2016-07-25 01:43:00,77.2,76.6,30.01,WSW,238,0.0,0.0,98,0.00,,,0.00,0.00,Weather logger V3.0.,2016-07-25 05:43:00,
2016-07-25 01:48:00,77.2,76.6,30.00,WSW,238,0.0,0.0,98,0.00,,,0.00,0.00,Weather logger V3.0.,2016-07-25 05:48:00,
2016-07-25 01:53:00,77.2,76.6,30.01,WSW,238,0.0,0.0,98,0.00,,,0.00,0.00,Weather logger V3.0.,2016-07-25 05:53:00,
2016-07-25 01:58:00,77.0,76.5,30.00,WSW,238,0.0,0.0,98,0.00,,,0.00,0.00,Weather logger V3.0.,2016-07-25 05:58:00,
2016-07-25 02:03:00,77.0,76.5,30.00,WSW,238,0.0,0.0,98,0.00,,,0.00,0.00,Weather logger V3.0.,2016-07-25 06:03:00,
2016-07-25 02:09:00,77.0,76.5,30.01,WSW,238,0.0,0.0,98,0.00,,,0.00,0.00,Weather logger V3.0.,2016-07-25 06:09:00,
2016-07-25 02:14:00,77.0,76.5,30.02,WSW,238,0.0,0.0,98,0.00,,,0.00,0.00,Weather logger V3.0.,2016-07-25 06:14:00,
2016-07-25 02:19:00,77.0,76.5,30.01,WSW,238,0.0,0.0,98,0.00,,,0.00,0.00,Weather logger V3.0.,2016-07-25 06:19:00,
2016-07-25 02:24:00,77.0,76.5,30.01,WSW,238,0.0,0.0,98,0.00,,,0.00,0.00,Weather logger V3.0.,2016-07-25 06:24:00,
2016-07-25 02:29:00,77.0,76.5,30.01,WSW,238,0.0,0.0,98,0.00,,,0.00,0.00,Weather logger V3.0.,2016-07-25 06:29:00,
2016-07-25 02:34:00,77.0,76.5,30.01,WSW,238,0.0,0.0,98,0.00,,,0.00,0.00,Weather logger V3.0.,2016-07-25 06:34:00,
2016-07-25 02:39:00,77.0,76.5,30.02,WSW,238,0.0,0.0,98,0.00,,,0.00,0.00,Weather logger V3.0.,2016-07-25 06:39:00,
2016-07-25 02:44:00,77.0,76.5,30.01,WSW,238,0.0,0.0,98,0.00,,,0.00,0.00,Weather logger V3.0.,2016-07-25 06:44:00,
2016-07-25 02:49:00,77.0,76.5,30.02,WSW,238,0.0,0.0,98,0.00,,,0.00,0.00,Weather logger V3.0.,2016-07-25 06:49:00,
2016-07-25 02:54:00,76.8,76.6,30.02,WSW,238,0.0,0.0,99,0.00,,,0.00,0.00,Weather logger V3.0.,2016-07-25 06:54:00,
2016-07-25 02:59:00,76.8,76.6,30.02,WSW,238,0.0,0.0,99,0.00,,,0.00,0.00,Weather logger V3.0.,2016-07-25 06:59:00,
2016-07-25 03:05:00,76.8,76.3,30.01,WSW,238,0.0,0.0,98,0.00,,,0.00,0.00,Weather logger V3.0.,2016-07-25 07:05:00,
2016-07-25 03:10:00,76.8,76.6,30.01,WSW,238,0.0,0.0,99,0.00,,,0.00,0.00,Weather logger V3.0.,2016-07-25 07:10:00,
2016-07-25 03:15:00,76.8,76.6,30.01,WSW,238,0.0,0.0,99,0.00,,,0.00,0.00,Weather logger V3.0.,2016-07-25 07:15:00,
2016-07-25 03:20:00,76.6,76.5,30.02,WSW,238,0.0,0.0,99,0.00,,,0.00,0.00,Weather logger V3.0.,2016-07-25 07:20:00,
2016-07-25 03:25:00,76.3,76.1,30.02,WSW,238,0.0,0.0,99,0.00,,,0.00,0.00,Weather logger V3.0.,2016-07-25 07:25:00,
2016-07-25 03:30:00,76.1,75.9,30.02,WSW,238,0.0,0.0,99,0.00,,,0.00,0.00,Weather logger V3.0.,2016-07-25 07:30:00,
2016-07-25 03:35:00,75.7,75.6,30.02,WSW,238,0.0,0.0,99,0.00,,,0.00,0.00,Weather logger V3.0.,2016-07-25 07:35:00,
2016-07-25 03:40:00,75.6,75.4,30.02,WSW,238,0.0,0.0,99,0.00,,,0.00,0.00,Weather logger V3.0.,2016-07-25 07:40:00,
2016-07-25 03:45:00,75.4,75.2,30.02,WSW,238,0.0,0.0,99,0.00,,,0.00,0.00,Weather logger V3.0.,2016-07-25 07:45:00,
2016-07-25 03:50:00,75.2,75.0,30.02,WSW,238,0.0,0.0,99,0.00,,,0.00,0.00,Weather logger V3.0.,2016-07-25 07:50:00,
2016-07-25 03:55:00,75.2,75.0,30.02,WSW,238,0.0,0.0,99,0.00,,,0.00,0.00,Weather logger V3.0.,2016-07-25 07:55:00,
2016-07-25 04:00:00,75.4,75.2,30.02,WSW,238,0.0,0.0,99,0.00,,,0.00,0.00,Weather logger V3.0.,2016-07-25 08:00:00,
2016-07-25 04:05:00,75.4,75.2,30.02,WSW,238,0.0,0.0,99,0.00,,,0.00,0.00,Weather logger V3.0.,2016-07-25 08:05:00,
2016-07-25 04:10:00,75.4,75.2,30.02,WSW,238,0.0,0.0,99,0.00,,,0.00,0.00,Weather logger V3.0.,2016-07-25 08:10:00,
2016-07-25 04:15:00,75.4,75.2,30.02,WSW,238,0.0,0.0,99,0.00,,,0.00,0.00,Weather logger V3.0.,2016-07-25 08:15:00,
2016-07-25 04:21:00,75.6,75.4,30.02,WSW,238,0.0,0.0,99,0.00,,,0.00,0.00,Weather logger V3.0.,2016-07-25 08:21:00,
2016-07-25 04:26:00,75.6,75.4,30.01,WSW,238,0.0,0.0,99,0.00,,,0.00,0.00,Weather logger V3.0.,2016-07-25 08:26:00,
2016-07-25 04:31:00,75.6,75.4,30.01,WSW,238,0.0,0.0,99,0.00,,,0.00,0.00,Weather logger V3.0.,2016-07-25 08:31:00,
2016-07-25 04:36:00,75.6,75.4,30.01,WSW,238,0.0,0.0,99,0.00,,,0.00,0.00,Weather logger V3.0.,2016-07-25 08:36:00,
2016-07-25 04:41:00,75.6,75.4,30.01,WSW,238,0.0,0.0,99,0.00,,,0.00,0.00,Weather logger V3.0.,2016-07-25 08:41:00,
2016-07-25 04:46:00,75.6,75.4,30.01,WSW,238,0.0,0.0,99,0.00,,,0.00,0.00,Weather logger V3.0.,2016-07-25 08:46:00,
2016-07-25 04:51:00,75.6,75.4,30.01,WSW,238,0.0,0.0,99,0.00,,,0.00,0.00,Weather logger V3.0.,2016-07-25 08:51:00,
2016-07-25 04:56:00,75.6,75.4,30.01,WSW,238,0.0,0.0,99,0.00,,,0.00,0.00,Weather logger V3.0.,2016-07-25 08:56:00,
2016-07-25 05:01:00,75.7,75.6,30.01,WSW,238,0.0,0.0,99,0.00,,,0.00,0.00,Weather logger V3.0.,2016-07-25 09:01:00,
2016-07-25 05:07:00,75.7,75.6,30.01,WSW,238,0.0,0.0,99,0.00,,,0.00,0.00,Weather logger V3.0.,2016-07-25 09:07:00,
2016-07-25 05:12:00,75.7,75.6,30.00,WSW,238,0.0,0.0,99,0.00,,,0.00,0.00,Weather logger V3.0.,2016-07-25 09:12:00,
2016-07-25 05:17:00,75.7,75.6,30.01,WSW,238,0.0,0.0,99,0.00,,,0.00,0.00,Weather logger V3.0.,2016-07-25 09:17:00,
2016-07-25 05:22:00,75.7,75.6,30.00,WSW,238,0.0,0.0,99,0.00,,,0.00,0.00,Weather logger V3.0.,2016-07-25 09:22:00,
2016-07-25 05:27:00,75.7,75.6,30.00,WSW,238,0.0,0.0,99,0.00,,,0.00,0.00,Weather logger V3.0.,2016-07-25 09:27:00,
2016-07-25 05:32:00,75.7,75.6,30.00,WSW,238,0.0,0.0,99,0.00,,,0.00,0.00,Weather logger V3.0.,2016-07-25 09:32:00,
2016-07-25 05:37:00,75.7,75.6,30.00,WSW,238,0.0,0.0,99,0.00,,,0.00,0.00,Weather logger V3.0.,2016-07-25 09:37:00,
2016-07-25 05:42:00,75.6,75.4,30.00,WSW,238,0.0,0.0,99,0.00,,,0.00,0.00,Weather logger V3.0.,2016-07-25 09:42:00,
2016-07-25 05:47:00,75.6,75.4,30.01,WSW,238,0.0,0.0,99,0.00,,,0.00,0.00,Weather logger V3.0.,2016-07-25 09:47:00,
2016-07-25 05:53:00,75.6,75.4,30.01,WSW,238,0.0,0.0,99,0.00,,,0.00,0.00,Weather logger V3.0.,2016-07-25 09:53:00,
2016-07-25 05:58:00,75.6,75.4,30.01,WSW,238,0.0,0.0,99,0.00,,,0.00,0.00,Weather logger V3.0.,2016-07-25 09:58:00,
2016-07-25 06:03:00,75.6,75.4,30.00,WSW,238,0.0,0.0,99,0.00,,,0.00,0.00,Weather logger V3.0.,2016-07-25 10:03:00,
2016-07-25 06:08:00,75.6,75.4,30.01,WSW,238,0.0,0.0,99,0.00,,,0.00,0.00,Weather logger V3.0.,2016-07-25 10:08:00,
2016-07-25 06:13:00,75.6,75.4,30.00,WSW,238,0.0,0.0,99,0.00,,,0.00,0.00,Weather logger V3.0.,2016-07-25 10:13:00,
2016-07-25 06:18:00,75.6,75.4,30.00,WSW,238,0.0,0.0,99,0.00,,,0.00,0.00,Weather logger V3.0.,2016-07-25 10:18:00,
2016-07-25 06:23:00,75.6,75.4,30.00,WSW,238,0.0,0.0,99,0.00,,,0.00,0.00,Weather logger V3.0.,2016-07-25 10:23:00,
2016-07-25 06:28:00,75.6,75.4,30.00,WSW,238,0.0,0.0,99,0.00,,,0.00,0.52,Weather logger V3.0.,2016-07-25 10:28:00,
2016-07-25 06:33:00,75.6,75.4,30.00,WSW,238,0.0,0.0,99,0.00,,,0.00,1.17,Weather logger V3.0.,2016-07-25 10:33:00,
2016-07-25 06:38:00,75.6,75.4,30.00,WSW,238,0.0,0.0,99,0.00,,,0.00,2.34,Weather logger V3.0.,2016-07-25 10:38:00,
2016-07-25 06:43:00,75.4,75.2,30.00,WSW,238,0.0,0.0,99,0.00,,,0.00,4.43,Weather logger V3.0.,2016-07-25 10:43:00,
2016-07-25 06:48:00,75.4,75.2,30.00,WSW,238,0.0,0.0,99,0.00,,,0.00,6.56,Weather logger V3.0.,2016-07-25 10:48:00,
2016-07-25 06:53:00,75.4,75.2,30.01,WSW,238,0.0,0.0,99,0.00,,,0.00,10.55,Weather logger V3.0.,2016-07-25 10:53:00,
2016-07-25 06:58:00,75.4,75.2,30.01,WSW,238,0.0,0.0,99,0.00,,,0.00,14.01,Weather logger V3.0.,2016-07-25 10:58:00,
2016-07-25 07:03:00,75.2,75.0,30.01,WSW,238,0.0,0.0,99,0.00,,,0.00,19.54,Weather logger V3.0.,2016-07-25 11:03:00,
2016-07-25 07:09:00,75.4,75.2,30.01,WSW,238,0.0,0.0,99,0.00,,,0.00,23.91,Weather logger V3.0.,2016-07-25 11:09:00,
2016-07-25 07:14:00,75.4,75.2,30.01,WSW,238,0.0,0.0,99,0.00,,,0.00,28.24,Weather logger V3.0.,2016-07-25 11:14:00,
2016-07-25 07:19:00,75.4,75.2,30.02,WSW,238,0.0,0.0,99,0.00,,,0.00,32.82,Weather logger V3.0.,2016-07-25 11:19:00,
2016-07-25 07:24:00,75.4,75.2,30.02,WSW,238,0.0,0.0,99,0.00,,,0.00,38.81,Weather logger V3.0.,2016-07-25 11:24:00,
2016-07-25 07:34:00,75.6,75.4,30.02,WSW,238,0.0,0.0,99,0.00,,,0.00,53.50,Weather logger V3.0.,2016-07-25 11:34:00,
2016-07-25 07:39:00,75.6,75.4,30.02,WSW,238,0.0,0.0,99,0.00,,,0.00,61.83,Weather logger V3.0.,2016-07-25 11:39:00,
2016-07-25 07:45:00,75.6,75.4,30.02,WSW,238,0.0,0.0,99,0.00,,,0.00,70.06,Weather logger V3.0.,2016-07-25 11:45:00,
2016-07-25 07:50:00,75.7,75.2,30.02,WSW,238,0.0,0.0,98,0.00,,,0.00,77.83,Weather logger V3.0.,2016-07-25 11:50:00,
2016-07-25 07:55:00,76.1,75.6,30.02,WSW,238,0.0,0.0,98,0.00,,,0.00,87.87,Weather logger V3.0.,2016-07-25 11:55:00,
2016-07-25 08:00:00,76.5,75.9,30.03,WSW,238,0.0,0.0,98,0.00,,,0.00,102.61,Weather logger V3.0.,2016-07-25 12:00:00,
2016-07-25 08:05:00,77.0,76.5,30.02,WSW,238,0.0,0.0,98,0.00,,,0.00,122.27,Weather logger V3.0.,2016-07-25 12:05:00,
2016-07-25 08:10:00,77.5,76.6,30.02,West,269,0.0,0.0,97,0.00,,,0.00,100.97,Weather logger V3.0.,2016-07-25 12:10:00,
2016-07-25 08:15:00,78.1,76.8,30.02,WNW,298,0.0,0.0,96,0.00,,,0.00,105.11,Weather logger V3.0.,2016-07-25 12:15:00,
2016-07-25 08:20:00,78.6,77.2,30.02,WNW,295,0.0,0.0,95,0.00,,,0.00,111.02,Weather logger V3.0.,2016-07-25 12:20:00,
2016-07-25 08:25:00,79.0,77.5,30.02,WSW,251,0.0,0.0,95,0.00,,,0.00,127.64,Weather logger V3.0.,2016-07-25 12:25:00,
2016-07-25 08:30:00,79.2,77.4,30.02,WNW,296,0.0,0.0,94,0.00,,,0.00,131.58,Weather logger V3.0.,2016-07-25 12:30:00,
2016-07-25 08:35:00,79.5,77.7,30.02,WNW,295,0.0,0.0,94,0.00,,,0.00,179.52,Weather logger V3.0.,2016-07-25 12:35:00,
2016-07-25 08:40:00,79.9,77.4,30.02,WNW,285,0.0,0.0,92,0.00,,,0.00,125.92,Weather logger V3.0.,2016-07-25 12:40:00,
2016-07-25 08:45:00,80.2,77.4,30.01,WNW,285,0.0,0.0,91,0.00,,,0.00,147.71,Weather logger V3.0.,2016-07-25 12:45:00,
2016-07-25 08:50:00,80.6,77.7,30.01,SW,218,0.0,0.0,91,0.00,,,0.00,217.20,Weather logger V3.0.,2016-07-25 12:50:00,
2016-07-25 08:55:00,81.0,78.1,30.02,SSW,212,0.0,0.0,91,0.00,,,0.00,318.28,Weather logger V3.0.,2016-07-25 12:55:00,
2016-07-25 09:00:00,81.3,78.1,30.02,West,281,2.0,2.5,90,0.00,,,0.00,329.69,Weather logger V3.0.,2016-07-25 13:00:00,
2016-07-25 09:06:00,81.5,79.0,30.02,SSW,207,0.0,0.0,92,0.00,,,0.00,340.08,Weather logger V3.0.,2016-07-25 13:06:00,
2016-07-25 09:11:00,81.9,79.3,30.01,South,191,0.2,2.5,92,0.00,,,0.00,352.27,Weather logger V3.0.,2016-07-25 13:11:00,
2016-07-25 09:16:00,82.0,79.2,30.02,South,186,0.0,0.0,91,0.00,,,0.00,358.09,Weather logger V3.0.,2016-07-25 13:16:00,
2016-07-25 09:21:00,82.6,79.0,30.02,South,190,0.0,0.0,89,0.00,,,0.00,367.94,Weather logger V3.0.,2016-07-25 13:21:00,
2016-07-25 09:26:00,82.9,78.8,30.02,NW,312,0.0,0.0,87,0.00,,,0.00,382.64,Weather logger V3.0.,2016-07-25 13:26:00,
2016-07-25 09:31:00,83.5,78.6,30.01,SSW,201,0.0,0.0,85,0.00,,,0.00,390.76,Weather logger V3.0.,2016-07-25 13:31:00,
2016-07-25 09:36:00,84.0,78.8,30.01,SSW,200,0.0,0.0,84,0.00,,,0.00,395.81,Weather logger V3.0.,2016-07-25 13:36:00,
2016-07-25 09:41:00,84.7,78.3,30.00,SSE,154,0.0,0.0,81,0.00,,,0.00,413.09,Weather logger V3.0.,2016-07-25 13:41:00,
2016-07-25 09:46:00,85.6,77.2,30.01,SSE,156,0.0,0.0,76,0.00,,,0.00,416.41,Weather logger V3.0.,2016-07-25 13:46:00,
2016-07-25 09:51:00,86.4,79.2,30.01,South,172,0.0,0.0,79,0.00,,,0.00,417.11,Weather logger V3.0.,2016-07-25 13:51:00,
2016-07-25 09:56:00,86.7,79.9,30.00,WSW,255,1.3,2.5,80,0.00,,,0.00,442.72,Weather logger V3.0.,2016-07-25 13:56:00,
2016-07-25 10:01:00,87.3,80.1,30.00,SE,142,0.2,2.5,79,0.00,,,0.00,463.28,Weather logger V3.0.,2016-07-25 14:01:00,
2016-07-25 10:06:00,87.6,80.4,30.00,WNW,296,4.0,4.9,79,0.00,,,0.00,468.37,Weather logger V3.0.,2016-07-25 14:06:00,
2016-07-25 10:11:00,87.8,80.6,30.01,West,269,0.0,0.0,79,0.00,,,0.00,386.54,Weather logger V3.0.,2016-07-25 14:11:00,
2016-07-25 10:17:00,87.8,80.6,30.00,SW,222,0.4,2.5,79,0.00,,,0.00,434.10,Weather logger V3.0.,2016-07-25 14:17:00,
2016-07-25 10:22:00,87.6,81.1,30.01,South,178,0.0,0.0,81,0.00,,,0.00,462.13,Weather logger V3.0.,2016-07-25 14:22:00,
2016-07-25 10:27:00,87.6,80.8,30.01,West,272,2.0,2.5,80,0.00,,,0.00,173.45,Weather logger V3.0.,2016-07-25 14:27:00,
2016-07-25 10:32:00,87.6,79.5,30.01,NW,318,1.8,2.5,77,0.00,,,0.00,532.81,Weather logger V3.0.,2016-07-25 14:32:00,
2016-07-25 10:37:00,87.6,79.5,30.01,SSE,153,0.0,0.0,77,0.00,,,0.00,553.74,Weather logger V3.0.,2016-07-25 14:37:00,
2016-07-25 10:42:00,88.0,78.6,30.01,NNW,340,0.0,0.0,74,0.00,,,0.00,196.55,Weather logger V3.0.,2016-07-25 14:42:00,
2016-07-25 10:47:00,88.3,79.5,30.01,SSW,207,2.7,4.9,75,0.00,,,0.00,550.54,Weather logger V3.0.,2016-07-25 14:47:00,